createdAt,value
2023-01-17T00:00:53.100Z,0.90
2023-01-17T00:07:54.132Z,2.67
2023-01-17T00:14:36.706Z,2.67
2023-01-17T00:21:37.668Z,1.67
2023-01-17T00:28:20.350Z,2.67
2023-01-17T00:35:02.644Z,1.23
2023-01-17T00:41:44.904Z,2.03
2023-01-17T00:48:45.734Z,2.35
2023-01-17T00:55:46.520Z,1.40
2023-01-17T01:02:47.739Z,1.88
2023-01-17T01:09:49.660Z,1.67
2023-01-17T01:16:50.755Z,1.70
2023-01-17T01:23:51.524Z,2.35
2023-01-17T01:30:52.566Z,1.92
2023-01-17T01:37:34.894Z,1.95
2023-01-17T01:44:55.086Z,2.92
2023-01-17T01:51:44.427Z,1.90
2023-01-17T01:58:31.879Z,2.72
2023-01-17T02:05:16.357Z,2.00
2023-01-17T02:11:58.954Z,1.80
2023-01-17T02:19:19.786Z,1.98
2023-01-17T02:26:35.341Z,1.90
2023-01-17T02:33:20.626Z,2.55
2023-01-17T02:40:22.103Z,1.98
2023-01-17T02:47:22.045Z,1.75
2023-01-17T02:54:26.218Z,3.25
2023-01-17T03:01:24.838Z,3.40
2023-01-17T03:08:08.060Z,3.38
2023-01-17T03:14:50.453Z,2.97
2023-01-17T03:21:32.752Z,5.05
2023-01-17T03:28:15.054Z,1.67
2023-01-17T03:34:57.406Z,2.53
2023-01-17T03:41:39.793Z,2.88
2023-01-17T03:48:22.288Z,2.38
2023-01-17T03:55:05.556Z,1.80
2023-01-17T04:01:47.967Z,2.90
2023-01-17T04:08:30.543Z,1.23
2023-01-17T04:15:12.944Z,2.17
2023-01-17T04:21:55.334Z,1.98
2023-01-17T04:28:37.752Z,1.20
2023-01-17T04:35:20.433Z,1.42
2023-01-17T04:42:03.057Z,1.40
2023-01-17T04:48:45.724Z,1.55
2023-01-17T04:55:28.037Z,4.32
2023-01-17T05:02:10.586Z,2.13
2023-01-17T05:08:53.433Z,2.17
2023-01-17T05:15:36.942Z,2.22
2023-01-17T05:22:19.264Z,3.38
2023-01-17T05:29:02.263Z,2.85
2023-01-17T05:35:44.568Z,3.25
2023-01-17T05:42:26.949Z,2.67
2023-01-17T05:49:09.406Z,3.95
2023-01-17T05:55:51.782Z,4.70
2023-01-17T06:02:34.222Z,3.40
2023-01-17T06:09:16.713Z,9.07
2023-01-17T06:16:03.365Z,5.30
2023-01-17T06:22:45.729Z,6.03
2023-01-17T06:29:28.065Z,4.00
2023-01-17T06:36:10.416Z,4.85
2023-01-17T06:42:53.032Z,6.07
2023-01-17T06:49:35.457Z,4.32
2023-01-17T06:56:18.274Z,7.60
2023-01-17T07:03:01.040Z,5.97
2023-01-17T07:09:43.969Z,4.35
2023-01-17T07:16:26.338Z,7.22
2023-01-17T07:23:09.180Z,6.85
2023-01-17T07:29:54.067Z,5.97
2023-01-17T07:36:36.772Z,6.28
2023-01-17T07:43:19.110Z,7.53
2023-01-17T07:50:04.707Z,9.70
2023-01-17T07:56:47.141Z,7.85
2023-01-17T08:03:32.301Z,4.43
2023-01-17T08:10:18.034Z,6.75
2023-01-17T08:17:05.963Z,9.18
2023-01-17T08:23:50.030Z,5.90
2023-01-17T08:30:32.674Z,8.25
2023-01-17T08:37:15.022Z,9.50
2023-01-17T08:43:57.892Z,8.27
2023-01-17T08:50:40.446Z,10.40
2023-01-17T08:57:22.780Z,6.82
2023-01-17T09:04:05.233Z,6.15
2023-01-17T09:10:47.564Z,3.60
2023-01-17T09:17:29.917Z,4.13
2023-01-17T09:24:12.376Z,4.38
2023-01-17T09:30:55.081Z,3.30
2023-01-17T09:37:37.426Z,3.15
2023-01-17T09:44:33.683Z,6.32
2023-01-17T09:51:24.207Z,4.18
2023-01-17T09:58:12.645Z,3.90
2023-01-17T10:05:23.350Z,5.07
2023-01-17T10:12:44.541Z,3.95
2023-01-17T10:19:34.196Z,4.05
2023-01-17T10:26:21.797Z,3.38
2023-01-17T10:33:15.327Z,3.83
2023-01-17T10:40:10.609Z,4.53
2023-01-17T10:47:02.261Z,2.95
2023-01-17T10:54:02.642Z,2.53
2023-01-17T11:01:19.485Z,2.25
2023-01-17T11:08:11.008Z,3.20
2023-01-17T11:15:19.618Z,1.75
2023-01-17T11:22:04.869Z,1.52
2023-01-17T11:28:47.267Z,2.80
2023-01-17T11:35:45.020Z,1.42
2023-01-17T11:42:38.286Z,1.40
2023-01-17T11:49:29.161Z,2.90
2023-01-17T11:56:29.004Z,4.25
2023-01-17T12:03:27.778Z,3.42
2023-01-17T12:10:21.109Z,4.03
2023-01-17T12:17:36.198Z,1.85
2023-01-17T12:24:36.840Z,2.40
2023-01-17T12:31:31.120Z,2.08
2023-01-17T12:38:31.779Z,2.00
2023-01-17T12:45:24.259Z,5.15
2023-01-17T12:52:23.445Z,1.35
2023-01-17T12:59:42.377Z,5.22
2023-01-17T13:06:31.696Z,2.17
2023-01-17T13:13:23.967Z,1.20
2023-01-17T13:20:31.743Z,1.98
2023-01-17T13:27:52.887Z,3.65
2023-01-17T13:35:12.417Z,1.13
2023-01-17T13:42:11.703Z,1.98
2023-01-17T13:49:20.808Z,2.08
2023-01-17T13:56:24.415Z,2.28
2023-01-17T14:03:11.350Z,4.40
2023-01-17T14:09:53.855Z,3.10
2023-01-17T14:16:36.198Z,3.88
2023-01-17T14:23:25.843Z,8.63
2023-01-17T14:30:17.579Z,7.50
2023-01-17T14:37:19.717Z,3.40
2023-01-17T14:44:03.622Z,2.88
2023-01-17T14:50:48.759Z,3.88
2023-01-17T14:57:31.569Z,6.45
2023-01-17T15:04:28.200Z,4.78
2023-01-17T15:11:18.044Z,3.83
2023-01-17T15:18:19.318Z,3.05
2023-01-17T15:25:02.548Z,10.30
2023-01-17T15:31:46.790Z,8.85
2023-01-17T15:38:38.228Z,4.25
2023-01-17T15:45:31.114Z,6.72
2023-01-17T15:52:15.894Z,6.85
2023-01-17T15:59:29.830Z,7.15
2023-01-17T16:06:35.214Z,5.15
2023-01-17T16:13:17.529Z,5.72
2023-01-17T16:20:00.074Z,6.90
2023-01-17T16:26:42.531Z,7.38
2023-01-17T16:33:24.818Z,7.25
2023-01-17T16:40:08.019Z,6.50
2023-01-17T16:46:50.319Z,6.97
2023-01-17T16:53:32.911Z,7.55
2023-01-17T17:00:15.681Z,7.90
2023-01-17T17:06:57.963Z,9.35
2023-01-17T17:13:41.928Z,8.60
2023-01-17T17:20:25.343Z,9.65
2023-01-17T17:27:07.805Z,6.43
2023-01-17T17:33:50.213Z,6.60
2023-01-17T17:40:35.928Z,5.70
2023-01-17T17:47:18.308Z,6.32
2023-01-17T17:54:07.041Z,7.88
2023-01-17T18:00:50.718Z,7.90
2023-01-17T18:07:33.361Z,6.15
2023-01-17T18:14:17.075Z,7.13
2023-01-17T18:21:08.559Z,12.25
2023-01-17T18:27:50.965Z,12.15
2023-01-17T18:34:35.541Z,7.40
2023-01-17T18:41:29.499Z,10.85
2023-01-17T18:48:13.244Z,10.05
2023-01-17T18:54:55.563Z,8.23
2023-01-17T19:01:38.872Z,8.35
2023-01-17T19:08:21.178Z,6.35
2023-01-17T19:15:03.671Z,12.60
2023-01-17T19:21:46.139Z,16.83
2023-01-17T19:28:29.132Z,16.23
2023-01-17T19:35:13.744Z,19.45
2023-01-17T19:41:56.132Z,14.50
2023-01-17T19:48:39.764Z,14.25
2023-01-17T19:55:25.610Z,14.95
2023-01-17T20:02:09.711Z,16.50
2023-01-17T20:08:52.303Z,15.50
2023-01-17T20:15:34.850Z,14.82
2023-01-17T20:22:17.298Z,12.88
2023-01-17T20:29:00.151Z,12.20
2023-01-17T20:35:42.439Z,12.90
2023-01-17T20:42:24.831Z,14.52
2023-01-17T20:49:10.353Z,12.55
2023-01-17T20:55:56.632Z,13.85
2023-01-17T21:02:38.925Z,11.57
2023-01-17T21:09:21.954Z,12.55
2023-01-17T21:16:05.455Z,9.48
2023-01-17T21:22:48.099Z,12.00
2023-01-17T21:29:32.019Z,16.63
2023-01-17T21:36:16.198Z,15.40
2023-01-17T21:42:58.536Z,13.60
2023-01-17T21:49:40.919Z,14.63
2023-01-17T21:56:41.760Z,14.07
2023-01-17T22:03:24.501Z,11.10
2023-01-17T22:10:07.609Z,15.45
2023-01-17T22:16:50.451Z,10.52
2023-01-17T22:23:33.737Z,13.65
2023-01-17T22:30:16.523Z,9.85
2023-01-17T22:36:59.010Z,13.70
2023-01-17T22:43:43.757Z,11.48
2023-01-17T22:50:26.078Z,11.57
2023-01-17T22:57:08.405Z,8.43
2023-01-17T23:03:56.735Z,11.05
2023-01-17T23:11:00.545Z,12.30
2023-01-17T23:18:01.907Z,11.30
2023-01-17T23:24:49.043Z,13.48
2023-01-17T23:31:31.362Z,14.07
2023-01-17T23:38:33.733Z,10.80
2023-01-17T23:45:16.402Z,13.68
2023-01-17T23:51:58.705Z,11.75
2023-01-17T23:58:40.996Z,13.63
